createdAt,value
2019-04-16T00:01:53.741Z,67.00
2019-04-16T00:03:56.793Z,67.10
2019-04-16T00:06:02.670Z,67.60
2019-04-16T00:08:27.365Z,67.70
2019-04-16T00:10:39.163Z,67.50
2019-04-16T00:12:59.171Z,68.80
2019-04-16T00:15:01.397Z,68.60
2019-04-16T00:17:02.737Z,68.00
2019-04-16T00:19:06.352Z,67.70
2019-04-16T00:21:14.641Z,66.30
2019-04-16T00:23:20.224Z,66.30
2019-04-16T00:25:21.633Z,66.10
2019-04-16T00:27:22.781Z,65.30
2019-04-16T00:29:24.317Z,65.40
2019-04-16T00:31:25.518Z,65.30
2019-04-16T00:33:26.652Z,65.70
2019-04-16T00:35:27.829Z,66.10
2019-04-16T00:37:28.969Z,66.50
2019-04-16T00:39:30.118Z,67.00
2019-04-16T00:41:31.274Z,67.10
2019-04-16T00:43:32.411Z,67.10
2019-04-16T00:45:33.567Z,67.70
2019-04-16T00:47:34.700Z,67.50
2019-04-16T00:49:37.905Z,68.70
2019-04-16T00:51:39.321Z,68.40
2019-04-16T00:53:40.445Z,70.90
2019-04-16T00:55:42.325Z,70.70
2019-04-16T00:57:48.433Z,70.10
2019-04-16T00:59:47.686Z,70.40
2019-04-16T01:01:48.912Z,71.20
2019-04-16T01:03:50.121Z,70.00
2019-04-16T01:05:51.288Z,69.50
2019-04-16T01:07:52.724Z,69.90
2019-04-16T01:09:53.988Z,69.50
2019-04-16T01:11:55.125Z,69.70
2019-04-16T01:13:56.339Z,70.60
2019-04-16T01:16:02.679Z,70.10
2019-04-16T01:18:00.964Z,70.40
2019-04-16T01:20:05.406Z,70.60
2019-04-16T01:22:06.949Z,70.40
2019-04-16T01:24:08.089Z,71.20
2019-04-16T01:26:09.501Z,72.80
2019-04-16T01:28:29.448Z,71.90
2019-04-16T01:30:36.618Z,71.60
2019-04-16T01:32:45.625Z,71.10
2019-04-16T01:34:48.750Z,71.00
2019-04-16T01:37:08.705Z,71.00
2019-04-16T01:39:17.804Z,70.70
2019-04-16T01:41:21.683Z,71.20
2019-04-16T01:43:20.185Z,69.90
2019-04-16T01:45:21.330Z,70.00
2019-04-16T01:47:22.790Z,70.90
2019-04-16T01:49:23.934Z,70.90
2019-04-16T01:51:25.085Z,71.10
2019-04-16T01:53:26.234Z,71.30
2019-04-16T01:55:27.386Z,71.40
2019-04-16T01:57:30.742Z,72.00
2019-04-16T01:59:35.629Z,72.10
2019-04-16T02:01:34.657Z,72.80
2019-04-16T02:03:36.463Z,73.30
2019-04-16T02:05:37.851Z,73.70
2019-04-16T02:07:39.008Z,73.30
2019-04-16T02:09:40.461Z,74.20
2019-04-16T02:11:42.174Z,73.90
2019-04-16T02:13:46.266Z,73.70
2019-04-16T02:15:46.902Z,73.90
2019-04-16T02:17:48.069Z,74.20
2019-04-16T02:19:49.298Z,74.60
2019-04-16T02:21:50.453Z,74.40
2019-04-16T02:23:51.684Z,75.30
2019-04-16T02:25:53.245Z,75.40
2019-04-16T02:27:56.985Z,74.60
2019-04-16T02:29:58.606Z,74.80
2019-04-16T02:32:01.880Z,74.90
2019-04-16T02:34:03.220Z,74.40
2019-04-16T02:36:04.493Z,74.70
2019-04-16T02:38:11.139Z,74.70
2019-04-16T02:40:17.057Z,75.10
2019-04-16T02:42:13.130Z,74.90
2019-04-16T02:44:16.934Z,75.00
2019-04-16T02:46:17.279Z,75.10
2019-04-16T02:48:18.441Z,74.60
2019-04-16T02:50:21.504Z,74.90
2019-04-16T02:52:24.554Z,75.30
2019-04-16T02:54:36.208Z,75.50
2019-04-16T02:56:57.398Z,75.90
2019-04-16T02:59:13.595Z,76.10
2019-04-16T03:01:20.869Z,76.40
2019-04-16T03:03:27.262Z,76.80
2019-04-16T03:05:30.670Z,76.00
2019-04-16T03:07:32.783Z,76.60
2019-04-16T03:09:34.578Z,76.40
2019-04-16T03:11:35.835Z,77.10
2019-04-16T03:13:37.382Z,76.70
2019-04-16T03:15:46.580Z,77.00
2019-04-16T03:17:47.748Z,77.20
2019-04-16T03:19:53.955Z,77.00
2019-04-16T03:21:55.767Z,77.20
2019-04-16T03:23:57.109Z,76.90
2019-04-16T03:25:58.581Z,77.10
2019-04-16T03:27:59.950Z,76.50
2019-04-16T03:30:03.485Z,76.40
2019-04-16T03:32:04.907Z,75.90
2019-04-16T03:34:06.495Z,75.90
2019-04-16T03:36:07.677Z,76.10
2019-04-16T03:38:08.826Z,76.10
2019-04-16T03:40:17.140Z,76.10
2019-04-16T03:42:13.285Z,75.80
2019-04-16T03:44:14.417Z,75.50
2019-04-16T03:46:15.815Z,75.60
2019-04-16T03:48:17.025Z,76.10
2019-04-16T03:50:18.186Z,76.00
2019-04-16T03:52:19.409Z,76.90
2019-04-16T03:54:22.430Z,76.60
2019-04-16T03:56:23.605Z,76.70
2019-04-16T03:58:24.755Z,76.90
2019-04-16T04:00:44.155Z,76.80
2019-04-16T04:02:44.071Z,76.90
2019-04-16T04:04:45.301Z,76.40
2019-04-16T04:06:46.535Z,76.60
2019-04-16T04:08:48.967Z,77.30
2019-04-16T04:10:50.832Z,76.30
2019-04-16T04:12:52.227Z,77.50
2019-04-16T04:14:54.291Z,77.10
2019-04-16T04:16:56.422Z,76.90
2019-04-16T04:18:57.621Z,76.60
2019-04-16T04:20:58.828Z,76.30
2019-04-16T04:22:59.991Z,76.70
2019-04-16T04:25:04.506Z,76.60
2019-04-16T04:27:04.279Z,76.00
2019-04-16T04:29:06.275Z,77.10
2019-04-16T04:31:07.778Z,76.40
2019-04-16T04:33:10.215Z,76.90
2019-04-16T04:35:11.778Z,77.10
2019-04-16T04:37:13.134Z,77.30
2019-04-16T04:39:15.679Z,77.00
2019-04-16T04:41:19.884Z,77.20
2019-04-16T04:43:20.319Z,77.40
2019-04-16T04:45:21.589Z,77.60
2019-04-16T04:47:22.842Z,77.80
2019-04-16T04:49:23.990Z,78.40
2019-04-16T04:51:25.137Z,78.50
2019-04-16T04:53:26.361Z,78.60
2019-04-16T04:55:27.518Z,78.70
2019-04-16T04:57:31.174Z,78.60
2019-04-16T04:59:36.521Z,78.90
2019-04-16T05:01:35.154Z,79.70
2019-04-16T05:03:44.445Z,78.90
2019-04-16T05:05:53.316Z,78.90
2019-04-16T05:07:59.650Z,79.30
2019-04-16T05:09:57.963Z,79.70
2019-04-16T05:11:59.451Z,79.40
2019-04-16T05:14:00.859Z,79.30
2019-04-16T05:16:02.796Z,79.70
2019-04-16T05:18:05.805Z,79.90
2019-04-16T05:20:07.293Z,80.20
2019-04-16T05:22:08.430Z,80.50
2019-04-16T05:24:09.872Z,80.40
2019-04-16T05:26:11.268Z,80.50
2019-04-16T05:28:13.263Z,80.30
2019-04-16T05:30:20.440Z,80.00
2019-04-16T05:32:17.986Z,80.10
2019-04-16T05:34:19.150Z,80.40
2019-04-16T05:36:21.381Z,80.30
2019-04-16T05:38:24.422Z,80.20
2019-04-16T05:40:28.071Z,80.40
2019-04-16T05:42:29.111Z,80.60
2019-04-16T05:44:33.178Z,80.50
2019-04-16T05:46:33.425Z,80.90
2019-04-16T05:48:34.835Z,81.00
2019-04-16T05:50:35.986Z,80.70
2019-04-16T05:52:37.123Z,81.00
2019-04-16T05:54:55.013Z,80.90
2019-04-16T05:57:13.283Z,80.80
2019-04-16T05:59:14.501Z,81.00
2019-04-16T06:01:29.477Z,81.20
2019-04-16T06:03:30.803Z,81.20
2019-04-16T06:05:32.082Z,80.50
2019-04-16T06:07:37.743Z,80.60
2019-04-16T06:09:36.570Z,80.90
2019-04-16T06:11:37.821Z,80.40
2019-04-16T06:13:49.434Z,80.30
2019-04-16T06:15:56.457Z,80.20
2019-04-16T06:18:08.174Z,80.50
2019-04-16T06:20:23.538Z,80.20
2019-04-16T06:22:32.206Z,79.80
2019-04-16T06:24:41.317Z,79.40
2019-04-16T06:26:47.414Z,79.30
2019-04-16T06:28:55.043Z,78.50
2019-04-16T06:31:10.064Z,78.30
2019-04-16T06:33:14.283Z,78.10
2019-04-16T06:35:43.068Z,78.30
2019-04-16T06:37:39.293Z,78.10
2019-04-16T06:39:42.483Z,77.50
2019-04-16T06:41:48.386Z,76.80
2019-04-16T06:43:50.242Z,76.90
2019-04-16T06:46:01.865Z,76.90
2019-04-16T06:48:04.794Z,77.50
2019-04-16T06:50:32.279Z,77.60
2019-04-16T06:52:29.304Z,77.10
2019-04-16T06:54:38.076Z,76.70
2019-04-16T06:56:58.997Z,76.30
2019-04-16T06:59:02.286Z,75.90
2019-04-16T07:01:07.756Z,76.60
2019-04-16T07:03:16.649Z,76.20
2019-04-16T07:05:19.865Z,75.90
2019-04-16T07:07:40.272Z,76.20
2019-04-16T07:09:45.904Z,75.80
2019-04-16T07:11:54.587Z,75.10
2019-04-16T07:13:52.397Z,75.50
2019-04-16T07:15:56.948Z,75.50
2019-04-16T07:17:56.629Z,75.70
2019-04-16T07:19:57.846Z,74.90
2019-04-16T07:21:59.142Z,75.00
2019-04-16T07:24:00.189Z,73.80
2019-04-16T07:26:03.575Z,73.70
2019-04-16T07:28:06.287Z,73.80
2019-04-16T07:30:12.701Z,74.00
2019-04-16T07:32:16.078Z,74.20
2019-04-16T07:34:35.814Z,73.50
2019-04-16T07:36:47.704Z,73.40
2019-04-16T07:39:05.261Z,73.70
2019-04-16T07:41:17.114Z,73.50
2019-04-16T07:43:31.048Z,73.60
2019-04-16T07:45:47.538Z,72.90
2019-04-16T07:48:06.423Z,72.60
2019-04-16T07:50:10.232Z,72.20
2019-04-16T07:52:13.176Z,71.70
2019-04-16T07:54:34.400Z,72.20
2019-04-16T07:56:36.444Z,72.10
2019-04-16T07:58:37.581Z,72.00
2019-04-16T08:00:41.321Z,71.80
2019-04-16T08:02:41.578Z,71.30
2019-04-16T08:04:42.613Z,70.60
2019-04-16T08:06:46.432Z,69.80
2019-04-16T08:08:46.926Z,68.90
2019-04-16T08:10:47.975Z,69.80
2019-04-16T08:12:51.278Z,69.90
2019-04-16T08:14:52.563Z,69.60
2019-04-16T08:16:53.606Z,70.00
2019-04-16T08:18:54.655Z,69.90
2019-04-16T08:21:02.083Z,70.50
2019-04-16T08:23:00.787Z,69.50
2019-04-16T08:25:04.257Z,69.50
2019-04-16T08:27:05.455Z,68.30
2019-04-16T08:29:06.839Z,68.90
2019-04-16T08:31:12.188Z,68.70
2019-04-16T08:33:12.751Z,68.80
2019-04-16T08:35:14.388Z,68.30
2019-04-16T08:37:15.367Z,67.90
2019-04-16T08:39:16.649Z,66.20
2019-04-16T08:41:21.374Z,66.30
2019-04-16T08:43:20.629Z,67.30
2019-04-16T08:45:21.663Z,66.20
2019-04-16T08:47:22.719Z,65.20
2019-04-16T08:49:23.745Z,66.20
2019-04-16T08:51:30.981Z,66.20
2019-04-16T08:53:27.769Z,65.00
2019-04-16T08:55:29.083Z,65.40
2019-04-16T08:57:32.185Z,65.10
2019-04-16T08:59:33.112Z,63.90
2019-04-16T09:01:34.755Z,63.10
2019-04-16T09:03:35.678Z,63.30
2019-04-16T09:05:41.294Z,63.20
2019-04-16T09:07:39.915Z,64.00
2019-04-16T09:09:42.937Z,63.10
2019-04-16T09:11:44.141Z,62.40
2019-04-16T09:13:49.993Z,62.30
2019-04-16T09:15:51.066Z,62.50
2019-04-16T09:17:54.018Z,61.90
2019-04-16T09:19:57.205Z,61.00
2019-04-16T09:21:58.473Z,60.90
2019-04-16T09:24:16.859Z,60.20
2019-04-16T09:26:28.497Z,59.40
2019-04-16T09:28:37.529Z,59.60
2019-04-16T09:30:40.475Z,58.80
2019-04-16T09:32:49.291Z,58.80
2019-04-16T09:35:10.994Z,58.60
2019-04-16T09:37:12.029Z,57.20
2019-04-16T09:39:29.911Z,55.20
2019-04-16T09:41:32.853Z,56.20
2019-04-16T09:43:41.599Z,55.30
2019-04-16T09:45:42.635Z,55.70
2019-04-16T09:47:43.688Z,54.70
2019-04-16T09:49:44.726Z,55.30
2019-04-16T09:51:45.781Z,55.20
2019-04-16T09:53:47.066Z,54.60
2019-04-16T09:55:50.571Z,54.90
2019-04-16T09:57:51.037Z,54.30
2019-04-16T09:59:54.238Z,53.00
2019-04-16T10:01:57.186Z,54.50
2019-04-16T10:03:59.121Z,52.30
2019-04-16T10:06:00.474Z,53.00
2019-04-16T10:08:01.793Z,52.20
2019-04-16T10:10:03.726Z,52.60
2019-04-16T10:12:07.712Z,53.40
2019-04-16T10:14:07.949Z,53.20
2019-04-16T10:16:09.448Z,52.50
2019-04-16T10:18:10.490Z,51.00
2019-04-16T10:20:11.526Z,52.40
2019-04-16T10:22:12.662Z,51.40
2019-04-16T10:24:15.733Z,51.60
2019-04-16T10:26:17.327Z,51.20
2019-04-16T10:28:20.276Z,51.70
2019-04-16T10:30:23.435Z,51.40
2019-04-16T10:32:25.986Z,50.90
2019-04-16T10:34:27.040Z,51.10
2019-04-16T10:36:28.210Z,51.10
2019-04-16T10:38:33.805Z,50.70
2019-04-16T10:40:36.856Z,51.20
2019-04-16T10:42:56.103Z,51.00
2019-04-16T10:45:04.819Z,51.10
2019-04-16T10:47:16.779Z,50.20
2019-04-16T10:49:27.380Z,49.90
2019-04-16T10:51:41.930Z,49.50
2019-04-16T10:53:45.151Z,50.50
2019-04-16T10:55:57.669Z,50.80
2019-04-16T10:58:00.637Z,50.70
2019-04-16T11:00:06.588Z,49.90
2019-04-16T11:02:28.637Z,50.70
2019-04-16T11:04:33.486Z,49.50
2019-04-16T11:06:36.760Z,50.10
2019-04-16T11:08:37.906Z,49.60
2019-04-16T11:10:39.508Z,49.80
2019-04-16T11:12:40.893Z,49.50
2019-04-16T11:14:42.204Z,49.90
2019-04-16T11:16:45.218Z,50.10
2019-04-16T11:18:46.394Z,50.10
2019-04-16T11:20:47.533Z,48.90
2019-04-16T11:22:48.695Z,49.30
2019-04-16T11:24:49.836Z,49.20
2019-04-16T11:26:50.958Z,48.40
2019-04-16T11:28:52.033Z,48.10
2019-04-16T11:30:55.049Z,48.20
2019-04-16T11:32:56.503Z,47.70
2019-04-16T11:34:57.779Z,47.30
2019-04-16T11:36:59.007Z,46.70
2019-04-16T11:39:00.079Z,46.80
2019-04-16T11:41:01.485Z,46.30
2019-04-16T11:43:03.157Z,46.60
2019-04-16T11:45:05.048Z,45.80
2019-04-16T11:47:06.625Z,46.70
2019-04-16T11:49:07.934Z,46.30
2019-04-16T11:51:08.868Z,46.20
2019-04-16T11:53:10.109Z,44.80
2019-04-16T11:55:11.219Z,45.90
2019-04-16T11:57:13.306Z,45.40
2019-04-16T11:59:15.091Z,44.70
2019-04-16T12:01:26.715Z,44.40
2019-04-16T12:03:34.706Z,43.50
2019-04-16T12:05:34.465Z,43.20
2019-04-16T12:07:40.184Z,42.40
2019-04-16T12:09:43.127Z,42.00
2019-04-16T12:11:46.005Z,43.10
2019-04-16T12:13:49.105Z,42.30
2019-04-16T12:16:03.693Z,42.40
2019-04-16T12:18:09.493Z,41.10
2019-04-16T12:20:18.054Z,41.30
2019-04-16T12:22:35.671Z,41.10
2019-04-16T12:24:53.519Z,40.20
2019-04-16T12:26:59.249Z,41.20
2019-04-16T12:29:02.426Z,39.70
2019-04-16T12:31:05.289Z,39.70
2019-04-16T12:33:24.702Z,38.80
2019-04-16T12:35:31.042Z,38.80
2019-04-16T12:38:06.535Z,38.00
2019-04-16T12:40:19.009Z,37.20
2019-04-16T12:42:19.342Z,37.70
2019-04-16T12:44:28.127Z,37.70
2019-04-16T12:46:33.768Z,37.00
2019-04-16T12:48:36.744Z,37.70
2019-04-16T12:50:42.285Z,38.10
2019-04-16T12:52:45.371Z,37.40
2019-04-16T12:54:48.558Z,36.60
2019-04-16T12:57:03.432Z,37.00
2019-04-16T12:59:15.202Z,36.10
2019-04-16T13:01:36.463Z,35.50
2019-04-16T13:03:41.833Z,34.50
2019-04-16T13:06:01.978Z,34.50
2019-04-16T13:08:14.106Z,34.80
2019-04-16T13:10:19.964Z,34.40
2019-04-16T13:12:32.424Z,34.40
2019-04-16T13:14:33.457Z,34.80
2019-04-16T13:16:45.326Z,34.60
2019-04-16T13:18:48.274Z,34.10
2019-04-16T13:21:05.139Z,33.50
2019-04-16T13:23:10.504Z,33.10
2019-04-16T13:25:13.577Z,34.00
2019-04-16T13:27:19.030Z,34.00
2019-04-16T13:29:20.207Z,33.70
2019-04-16T13:31:21.167Z,32.90
2019-04-16T13:33:22.423Z,32.90
2019-04-16T13:35:23.432Z,33.50
2019-04-16T13:37:24.513Z,33.10
2019-04-16T13:39:40.004Z,32.70
2019-04-16T13:41:39.569Z,33.00
2019-04-16T13:43:42.386Z,33.90
2019-04-16T13:45:43.312Z,32.40
2019-04-16T13:47:44.926Z,31.80
2019-04-16T13:49:56.601Z,31.90
2019-04-16T13:51:57.673Z,31.60
2019-04-16T13:54:01.816Z,31.40
2019-04-16T13:56:17.416Z,30.50
2019-04-16T13:58:18.618Z,31.70
2019-04-16T14:00:21.450Z,32.10
2019-04-16T14:02:33.237Z,30.10
2019-04-16T14:04:36.982Z,31.30
2019-04-16T14:06:36.990Z,32.30
2019-04-16T14:08:37.898Z,31.60
2019-04-16T14:10:39.083Z,31.30
2019-04-16T14:12:42.659Z,31.70
2019-04-16T14:14:43.453Z,31.40
2019-04-16T14:16:45.405Z,30.70
2019-04-16T14:18:46.327Z,30.30
2019-04-16T14:20:47.259Z,30.20
2019-04-16T14:22:53.306Z,30.50
2019-04-16T14:24:51.280Z,29.90
2019-04-16T14:26:52.189Z,30.00
2019-04-16T14:28:56.619Z,30.50
2019-04-16T14:30:56.099Z,31.10
2019-04-16T14:32:57.008Z,29.90
2019-04-16T14:34:59.738Z,31.30
2019-04-16T14:37:00.918Z,31.30
2019-04-16T14:39:08.560Z,30.00
2019-04-16T14:41:11.915Z,30.80
2019-04-16T14:43:14.325Z,30.20
2019-04-16T14:45:23.248Z,30.00
2019-04-16T14:47:24.164Z,31.00
2019-04-16T14:49:25.432Z,29.70
2019-04-16T14:51:26.416Z,29.20
2019-04-16T14:53:31.875Z,29.60
2019-04-16T14:55:42.167Z,29.50
2019-04-16T14:58:01.745Z,29.00
2019-04-16T15:00:23.364Z,28.90
2019-04-16T15:02:29.455Z,30.20
2019-04-16T15:04:40.194Z,30.70
2019-04-16T15:07:01.327Z,30.60
2019-04-16T15:09:18.964Z,30.90
2019-04-16T15:11:22.381Z,29.30
2019-04-16T15:13:26.298Z,29.10
2019-04-16T15:15:29.923Z,29.70
2019-04-16T15:17:51.861Z,29.20
2019-04-16T15:19:55.465Z,28.10
2019-04-16T15:22:19.495Z,29.40
2019-04-16T15:24:38.379Z,29.50
2019-04-16T15:27:31.678Z,29.50
2019-04-16T15:30:34.030Z,29.80
2019-04-16T15:32:43.328Z,30.60
2019-04-16T15:34:47.040Z,30.00
2019-04-16T15:36:54.923Z,29.70
2019-04-16T15:39:02.876Z,29.40
2019-04-16T15:41:13.371Z,30.00
2019-04-16T15:43:35.019Z,30.30
2019-04-16T15:46:12.892Z,30.40
2019-04-16T15:48:28.672Z,29.30
2019-04-16T15:50:43.988Z,29.80
2019-04-16T15:52:47.517Z,31.20
2019-04-16T15:54:51.091Z,30.50
2019-04-16T15:57:11.045Z,29.60
2019-04-16T15:59:23.606Z,29.90
2019-04-16T16:01:43.562Z,29.70
2019-04-16T16:04:04.362Z,29.20
2019-04-16T16:06:11.000Z,29.40
2019-04-16T16:08:29.814Z,29.80
2019-04-16T16:10:32.280Z,29.50
2019-04-16T16:12:33.977Z,29.60
2019-04-16T16:14:38.730Z,30.00
2019-04-16T16:16:41.922Z,29.30
2019-04-16T16:18:42.027Z,29.90
2019-04-16T16:20:43.595Z,29.70
2019-04-16T16:22:45.870Z,29.70
2019-04-16T16:24:47.409Z,29.80
2019-04-16T16:26:48.681Z,30.50
2019-04-16T16:28:49.946Z,30.90
2019-04-16T16:30:51.333Z,30.80
2019-04-16T16:32:52.660Z,31.40
2019-04-16T16:34:53.925Z,30.70
2019-04-16T16:36:55.201Z,30.80
2019-04-16T16:38:56.453Z,31.20
2019-04-16T16:40:57.742Z,30.80
2019-04-16T16:42:59.017Z,31.00
2019-04-16T16:45:01.608Z,32.10
2019-04-16T16:47:05.457Z,33.60
2019-04-16T16:49:06.718Z,32.80
2019-04-16T16:51:08.152Z,33.70
2019-04-16T16:53:20.978Z,32.50
2019-04-16T16:55:32.814Z,33.50
2019-04-16T16:57:36.034Z,33.30
2019-04-16T16:59:44.778Z,33.80
2019-04-16T17:01:47.956Z,33.10
2019-04-16T17:03:56.894Z,33.90
2019-04-16T17:05:59.439Z,33.80
2019-04-16T17:08:00.886Z,36.00
2019-04-16T17:10:05.062Z,37.20
2019-04-16T17:12:06.336Z,37.80
2019-04-16T17:14:07.799Z,38.40
2019-04-16T17:16:13.314Z,40.00
2019-04-16T17:18:12.339Z,40.30
2019-04-16T17:20:13.618Z,39.40
2019-04-16T17:22:17.490Z,40.40
2019-04-16T17:24:18.854Z,41.70
2019-04-16T17:26:20.246Z,41.70
2019-04-16T17:28:21.617Z,42.40
2019-04-16T17:30:22.894Z,41.60
2019-04-16T17:32:24.332Z,43.40
2019-04-16T17:34:25.672Z,42.80
2019-04-16T17:36:27.369Z,41.60
2019-04-16T17:38:28.709Z,42.50
2019-04-16T17:40:31.983Z,43.10
2019-04-16T17:42:37.716Z,44.40
2019-04-16T17:44:49.098Z,44.80
2019-04-16T17:46:55.802Z,45.30
2019-04-16T17:49:06.407Z,45.40
2019-04-16T17:51:15.481Z,46.10
2019-04-16T17:53:18.658Z,46.00
2019-04-16T17:55:24.387Z,45.90
2019-04-16T17:57:36.799Z,44.80
2019-04-16T17:59:40.097Z,45.50
2019-04-16T18:01:52.066Z,45.60
2019-04-16T18:03:55.286Z,46.60
2019-04-16T18:06:07.367Z,46.80
2019-04-16T18:08:29.335Z,46.40
2019-04-16T18:10:49.013Z,46.70
2019-04-16T18:12:55.149Z,47.10
2019-04-16T18:15:13.576Z,48.20
2019-04-16T18:17:27.665Z,48.40
2019-04-16T18:19:47.430Z,48.40
2019-04-16T18:21:53.699Z,48.60
2019-04-16T18:23:56.917Z,47.70
2019-04-16T18:26:17.113Z,48.80
2019-04-16T18:28:20.579Z,48.50
2019-04-16T18:30:38.854Z,49.00
2019-04-16T18:32:59.045Z,48.70
2019-04-16T18:35:08.466Z,48.80
2019-04-16T18:37:30.033Z,48.50
2019-04-16T18:39:37.219Z,49.10
2019-04-16T18:41:41.430Z,47.50
2019-04-16T18:43:47.553Z,49.40
2019-04-16T18:45:52.295Z,50.30
2019-04-16T18:48:04.979Z,49.80
2019-04-16T18:50:04.890Z,50.50
2019-04-16T18:52:07.018Z,50.20
2019-04-16T18:54:08.662Z,49.20
2019-04-16T18:56:10.097Z,49.80
2019-04-16T18:58:11.373Z,50.60
2019-04-16T19:00:14.741Z,50.40
2019-04-16T19:02:16.020Z,49.90
2019-04-16T19:04:17.338Z,51.20
2019-04-16T19:06:26.702Z,50.60
2019-04-16T19:08:40.786Z,50.60
2019-04-16T19:10:31.233Z,51.30
2019-04-16T19:12:32.501Z,50.70
2019-04-16T19:14:36.559Z,51.80
2019-04-16T19:16:38.541Z,52.20
2019-04-16T19:18:39.813Z,51.70
2019-04-16T19:20:41.190Z,51.90
2019-04-16T19:22:42.485Z,52.40
2019-04-16T19:24:44.110Z,52.40
2019-04-16T19:26:45.899Z,52.90
2019-04-16T19:28:47.479Z,52.90
2019-04-16T19:30:48.980Z,52.40
2019-04-16T19:32:50.565Z,52.80
2019-04-16T19:35:07.268Z,54.10
2019-04-16T19:36:55.995Z,52.60
2019-04-16T19:38:59.409Z,53.50
2019-04-16T19:41:01.293Z,53.50
2019-04-16T19:43:03.612Z,54.10
2019-04-16T19:45:08.954Z,54.10
2019-04-16T19:47:09.775Z,53.10
2019-04-16T19:49:11.317Z,53.80
2019-04-16T19:51:12.915Z,53.60
2019-04-16T19:53:15.092Z,54.20
2019-04-16T19:55:17.155Z,54.00
2019-04-16T19:57:18.575Z,53.90
2019-04-16T19:59:19.849Z,54.70
2019-04-16T20:01:21.102Z,54.30
2019-04-16T20:03:22.599Z,55.10
2019-04-16T20:05:23.978Z,54.60
2019-04-16T20:07:25.245Z,54.20
2019-04-16T20:09:26.517Z,54.80
2019-04-16T20:11:27.783Z,54.70
2019-04-16T20:13:29.827Z,54.70
2019-04-16T20:15:31.313Z,54.70
2019-04-16T20:17:32.854Z,55.20
2019-04-16T20:19:36.282Z,54.50
2019-04-16T20:21:38.169Z,54.00
2019-04-16T20:23:39.592Z,55.40
2019-04-16T20:25:40.858Z,55.30
2019-04-16T20:27:42.308Z,54.90
2019-04-16T20:29:43.578Z,55.20
2019-04-16T20:31:45.104Z,55.40
2019-04-16T20:33:46.386Z,55.40
2019-04-16T20:35:50.450Z,55.60
2019-04-16T20:37:54.265Z,55.50
2019-04-16T20:39:55.952Z,55.90
2019-04-16T20:41:59.416Z,56.30
2019-04-16T20:44:00.397Z,56.30
2019-04-16T20:46:01.888Z,56.10
2019-04-16T20:48:03.474Z,55.70
2019-04-16T20:50:05.882Z,56.80
2019-04-16T20:52:07.157Z,56.60
2019-04-16T20:54:12.225Z,56.70
2019-04-16T20:56:13.643Z,56.50
2019-04-16T20:58:15.058Z,56.20
2019-04-16T21:00:22.489Z,56.40
2019-04-16T21:02:24.361Z,56.40
2019-04-16T21:04:25.893Z,56.80
2019-04-16T21:06:27.448Z,56.40
2019-04-16T21:08:28.777Z,56.40
2019-04-16T21:10:35.447Z,57.00
2019-04-16T21:12:33.229Z,56.80
2019-04-16T21:14:34.838Z,56.70
2019-04-16T21:16:36.194Z,56.10
2019-04-16T21:18:37.528Z,56.90
2019-04-16T21:20:39.040Z,57.20
2019-04-16T21:22:40.406Z,56.60
2019-04-16T21:24:42.820Z,57.00
2019-04-16T21:26:44.078Z,56.70
2019-04-16T21:28:47.258Z,56.70
2019-04-16T21:30:50.429Z,57.30
2019-04-16T21:33:02.579Z,57.60
2019-04-16T21:35:09.642Z,57.10
2019-04-16T21:37:29.282Z,57.40
2019-04-16T21:39:32.458Z,57.10
2019-04-16T21:41:33.725Z,57.40
2019-04-16T21:43:35.691Z,57.30
2019-04-16T21:45:38.428Z,57.40
2019-04-16T21:47:39.701Z,57.40
2019-04-16T21:49:45.055Z,57.00
2019-04-16T21:52:02.594Z,57.30
2019-04-16T21:54:03.905Z,57.60
2019-04-16T21:56:08.196Z,57.80
2019-04-16T21:58:08.675Z,57.80
2019-04-16T22:00:12.174Z,57.90
2019-04-16T22:02:17.345Z,58.00
2019-04-16T22:04:18.730Z,58.20
2019-04-16T22:06:20.991Z,58.30
2019-04-16T22:08:22.486Z,57.90
2019-04-16T22:10:23.785Z,57.60
2019-04-16T22:12:25.047Z,57.50
2019-04-16T22:14:26.576Z,57.20
2019-04-16T22:16:29.876Z,57.50
2019-04-16T22:18:31.265Z,57.70
2019-04-16T22:20:35.757Z,57.40
2019-04-16T22:22:35.734Z,57.50
2019-04-16T22:24:37.009Z,58.40
2019-04-16T22:26:38.550Z,57.60
2019-04-16T22:28:44.164Z,57.50
2019-04-16T22:30:43.322Z,58.80
2019-04-16T22:32:44.581Z,60.30
2019-04-16T22:34:45.921Z,62.20
2019-04-16T22:36:47.782Z,63.80
2019-04-16T22:38:50.969Z,63.80
2019-04-16T22:40:54.965Z,64.30
2019-04-16T22:43:07.052Z,64.70
2019-04-16T22:45:22.215Z,65.40
2019-04-16T22:47:28.416Z,65.80
2019-04-16T22:49:30.026Z,66.00
2019-04-16T22:51:31.664Z,67.00
2019-04-16T22:53:33.061Z,66.60
2019-04-16T22:55:34.656Z,65.40
2019-04-16T22:57:36.329Z,64.30
2019-04-16T22:59:39.396Z,63.70
2019-04-16T23:01:44.989Z,63.60
2019-04-16T23:04:14.873Z,62.60
2019-04-16T23:06:16.503Z,63.20
2019-04-16T23:08:19.181Z,62.80
2019-04-16T23:10:21.835Z,63.90
2019-04-16T23:12:27.232Z,65.40
2019-04-16T23:14:27.817Z,65.10
2019-04-16T23:16:29.254Z,65.40
2019-04-16T23:18:30.533Z,64.80
2019-04-16T23:20:36.114Z,66.40
2019-04-16T23:22:35.466Z,65.70
2019-04-16T23:24:36.746Z,66.10
2019-04-16T23:26:38.026Z,65.80
2019-04-16T23:28:39.690Z,65.20
2019-04-16T23:30:42.510Z,64.80
2019-04-16T23:32:44.035Z,64.40
2019-04-16T23:34:45.457Z,64.50
2019-04-16T23:36:48.699Z,64.60
2019-04-16T23:38:49.974Z,63.40
2019-04-16T23:40:51.247Z,65.00
2019-04-16T23:43:11.528Z,64.40
2019-04-16T23:45:14.713Z,64.40
2019-04-16T23:47:17.898Z,65.90
2019-04-16T23:49:33.151Z,67.50
2019-04-16T23:51:36.329Z,68.60
2019-04-16T23:53:51.481Z,69.30
2019-04-16T23:56:00.529Z,69.40
2019-04-16T23:58:09.352Z,68.60
